sensor_id;sensor_type;location;lat;lon;timestamp;P1;durP1;ratioP1;P2;durP2;ratioP2
68484;SDS011;55472;50.060;21.960;2024-01-11T00:01:50;61.57;;;23.40;;
68484;SDS011;55472;50.060;21.960;2024-01-11T00:04:16;67.28;;;23.20;;
68484;SDS011;55472;50.060;21.960;2024-01-11T00:06:42;54.63;;;17.98;;
68484;SDS011;55472;50.060;21.960;2024-01-11T00:09:10;56.47;;;21.20;;
68484;SDS011;55472;50.060;21.960;2024-01-11T00:11:36;64.50;;;20.27;;
68484;SDS011;55472;50.060;21.960;2024-01-11T00:14:02;58.45;;;17.02;;
68484;SDS011;55472;50.060;21.960;2024-01-11T00:16:28;56.67;;;18.80;;
68484;SDS011;55472;50.060;21.960;2024-01-11T00:18:55;55.58;;;17.05;;
68484;SDS011;55472;50.060;21.960;2024-01-11T00:21:21;51.63;;;17.48;;
68484;SDS011;55472;50.060;21.960;2024-01-11T00:23:47;55.43;;;20.10;;
68484;SDS011;55472;50.060;21.960;2024-01-11T00:26:14;55.33;;;18.33;;
68484;SDS011;55472;50.060;21.960;2024-01-11T00:28:40;49.83;;;18.17;;
68484;SDS011;55472;50.060;21.960;2024-01-11T00:31:06;48.15;;;14.77;;
68484;SDS011;55472;50.060;21.960;2024-01-11T00:33:33;48.83;;;17.57;;
68484;SDS011;55472;50.060;21.960;2024-01-11T00:35:59;42.97;;;15.82;;
68484;SDS011;55472;50.060;21.960;2024-01-11T00:38:25;42.72;;;15.60;;
68484;SDS011;55472;50.060;21.960;2024-01-11T00:40:51;49.60;;;18.25;;
68484;SDS011;55472;50.060;21.960;2024-01-11T00:43:17;49.40;;;16.20;;
68484;SDS011;55472;50.060;21.960;2024-01-11T00:45:44;50.00;;;17.02;;
68484;SDS011;55472;50.060;21.960;2024-01-11T00:48:11;51.65;;;16.63;;
68484;SDS011;55472;50.060;21.960;2024-01-11T00:50:37;58.92;;;16.77;;
68484;SDS011;55472;50.060;21.960;2024-01-11T00:53:04;55.85;;;17.40;;
68484;SDS011;55472;50.060;21.960;2024-01-11T00:55:30;41.63;;;13.63;;
68484;SDS011;55472;50.060;21.960;2024-01-11T00:57:56;51.80;;;17.88;;
68484;SDS011;55472;50.060;21.960;2024-01-11T01:00:22;51.50;;;16.20;;
68484;SDS011;55472;50.060;21.960;2024-01-11T01:02:48;43.05;;;16.88;;
68484;SDS011;55472;50.060;21.960;2024-01-11T01:05:14;56.67;;;18.43;;
68484;SDS011;55472;50.060;21.960;2024-01-11T01:07:41;52.67;;;15.55;;
68484;SDS011;55472;50.060;21.960;2024-01-11T01:10:07;48.85;;;15.23;;
68484;SDS011;55472;50.060;21.960;2024-01-11T01:12:34;42.80;;;12.75;;
68484;SDS011;55472;50.060;21.960;2024-01-11T01:15:00;37.78;;;13.10;;
68484;SDS011;55472;50.060;21.960;2024-01-11T01:17:26;44.97;;;15.80;;
68484;SDS011;55472;50.060;21.960;2024-01-11T01:19:52;35.88;;;12.45;;
68484;SDS011;55472;50.060;21.960;2024-01-11T01:22:18;42.17;;;11.88;;
68484;SDS011;55472;50.060;21.960;2024-01-11T01:24:44;37.13;;;11.98;;
68484;SDS011;55472;50.060;21.960;2024-01-11T01:27:10;31.00;;;11.33;;
68484;SDS011;55472;50.060;21.960;2024-01-11T01:29:36;29.30;;;10.80;;
68484;SDS011;55472;50.060;21.960;2024-01-11T01:32:03;30.02;;;10.55;;
68484;SDS011;55472;50.060;21.960;2024-01-11T01:34:29;32.35;;;11.70;;
68484;SDS011;55472;50.060;21.960;2024-01-11T01:36:56;42.58;;;12.77;;
68484;SDS011;55472;50.060;21.960;2024-01-11T01:39:21;34.90;;;12.53;;
68484;SDS011;55472;50.060;21.960;2024-01-11T01:41:48;33.70;;;10.77;;
68484;SDS011;55472;50.060;21.960;2024-01-11T01:44:14;29.10;;;11.02;;
68484;SDS011;55472;50.060;21.960;2024-01-11T01:46:40;43.75;;;11.10;;
68484;SDS011;55472;50.060;21.960;2024-01-11T01:49:06;38.23;;;10.87;;
68484;SDS011;55472;50.060;21.960;2024-01-11T01:51:33;32.85;;;11.45;;
68484;SDS011;55472;50.060;21.960;2024-01-11T01:53:59;34.72;;;11.00;;
68484;SDS011;55472;50.060;21.960;2024-01-11T01:56:27;38.97;;;10.90;;
68484;SDS011;55472;50.060;21.960;2024-01-11T01:58:54;39.10;;;13.45;;
68484;SDS011;55472;50.060;21.960;2024-01-11T02:01:21;40.30;;;13.73;;
68484;SDS011;55472;50.060;21.960;2024-01-11T02:03:51;48.95;;;12.75;;
68484;SDS011;55472;50.060;21.960;2024-01-11T02:06:21;35.03;;;12.95;;
68484;SDS011;55472;50.060;21.960;2024-01-11T02:08:51;39.53;;;12.40;;
68484;SDS011;55472;50.060;21.960;2024-01-11T02:11:21;34.67;;;11.68;;
68484;SDS011;55472;50.060;21.960;2024-01-11T02:13:49;35.80;;;11.90;;
68484;SDS011;55472;50.060;21.960;2024-01-11T02:16:16;39.83;;;12.48;;
68484;SDS011;55472;50.060;21.960;2024-01-11T02:18:42;37.67;;;13.45;;
68484;SDS011;55472;50.060;21.960;2024-01-11T02:21:09;30.95;;;12.35;;
68484;SDS011;55472;50.060;21.960;2024-01-11T02:23:42;49.70;;;14.40;;
68484;SDS011;55472;50.060;21.960;2024-01-11T02:26:13;40.57;;;11.73;;
68484;SDS011;55472;50.060;21.960;2024-01-11T02:28:43;40.33;;;10.80;;
68484;SDS011;55472;50.060;21.960;2024-01-11T02:31:11;32.67;;;9.95;;
68484;SDS011;55472;50.060;21.960;2024-01-11T02:33:39;37.97;;;13.13;;
68484;SDS011;55472;50.060;21.960;2024-01-11T02:36:05;37.70;;;11.65;;
68484;SDS011;55472;50.060;21.960;2024-01-11T02:38:32;34.33;;;12.33;;
68484;SDS011;55472;50.060;21.960;2024-01-11T02:41:00;33.60;;;12.05;;
68484;SDS011;55472;50.060;21.960;2024-01-11T02:43:26;36.08;;;12.13;;
68484;SDS011;55472;50.060;21.960;2024-01-11T02:45:55;32.95;;;11.43;;
68484;SDS011;55472;50.060;21.960;2024-01-11T02:48:27;35.42;;;11.68;;
68484;SDS011;55472;50.060;21.960;2024-01-11T02:50:55;31.33;;;12.13;;
68484;SDS011;55472;50.060;21.960;2024-01-11T02:53:22;29.48;;;10.73;;
68484;SDS011;55472;50.060;21.960;2024-01-11T02:55:49;29.75;;;10.50;;
68484;SDS011;55472;50.060;21.960;2024-01-11T02:58:16;30.83;;;10.27;;
68484;SDS011;55472;50.060;21.960;2024-01-11T03:00:43;32.50;;;10.13;;
68484;SDS011;55472;50.060;21.960;2024-01-11T03:03:09;35.30;;;10.43;;
68484;SDS011;55472;50.060;21.960;2024-01-11T03:05:35;41.42;;;10.88;;
68484;SDS011;55472;50.060;21.960;2024-01-11T03:08:01;32.60;;;11.35;;
68484;SDS011;55472;50.060;21.960;2024-01-11T03:10:27;37.70;;;10.32;;
68484;SDS011;55472;50.060;21.960;2024-01-11T03:12:53;25.27;;;7.97;;
68484;SDS011;55472;50.060;21.960;2024-01-11T03:15:19;31.98;;;10.30;;
68484;SDS011;55472;50.060;21.960;2024-01-11T03:17:45;33.00;;;9.57;;
68484;SDS011;55472;50.060;21.960;2024-01-11T03:20:12;27.65;;;9.18;;
68484;SDS011;55472;50.060;21.960;2024-01-11T03:22:44;33.60;;;10.63;;
68484;SDS011;55472;50.060;21.960;2024-01-11T03:25:12;27.98;;;10.82;;
68484;SDS011;55472;50.060;21.960;2024-01-11T03:27:38;28.23;;;9.63;;
68484;SDS011;55472;50.060;21.960;2024-01-11T03:30:04;32.67;;;10.18;;
68484;SDS011;55472;50.060;21.960;2024-01-11T03:32:31;36.65;;;11.05;;
68484;SDS011;55472;50.060;21.960;2024-01-11T03:34:57;34.20;;;9.67;;
68484;SDS011;55472;50.060;21.960;2024-01-11T03:37:23;30.83;;;9.85;;
68484;SDS011;55472;50.060;21.960;2024-01-11T03:39:50;26.75;;;9.80;;
68484;SDS011;55472;50.060;21.960;2024-01-11T03:42:16;30.80;;;11.00;;
68484;SDS011;55472;50.060;21.960;2024-01-11T03:44:42;34.08;;;11.52;;
68484;SDS011;55472;50.060;21.960;2024-01-11T03:47:08;33.60;;;9.97;;
68484;SDS011;55472;50.060;21.960;2024-01-11T03:49:35;32.33;;;9.75;;
68484;SDS011;55472;50.060;21.960;2024-01-11T03:52:01;36.53;;;10.05;;
68484;SDS011;55472;50.060;21.960;2024-01-11T03:54:27;25.50;;;10.65;;
68484;SDS011;55472;50.060;21.960;2024-01-11T03:56:53;28.10;;;9.07;;
68484;SDS011;55472;50.060;21.960;2024-01-11T03:59:19;35.55;;;10.43;;
68484;SDS011;55472;50.060;21.960;2024-01-11T04:01:45;33.40;;;10.15;;
68484;SDS011;55472;50.060;21.960;2024-01-11T04:04:11;23.45;;;9.95;;
68484;SDS011;55472;50.060;21.960;2024-01-11T04:06:37;28.87;;;9.17;;
68484;SDS011;55472;50.060;21.960;2024-01-11T04:09:03;28.65;;;10.02;;
68484;SDS011;55472;50.060;21.960;2024-01-11T04:11:30;35.13;;;10.93;;
68484;SDS011;55472;50.060;21.960;2024-01-11T04:13:56;37.70;;;11.38;;
68484;SDS011;55472;50.060;21.960;2024-01-11T04:16:22;29.67;;;9.63;;
68484;SDS011;55472;50.060;21.960;2024-01-11T04:18:48;27.50;;;10.80;;
68484;SDS011;55472;50.060;21.960;2024-01-11T04:21:23;23.77;;;8.73;;
68484;SDS011;55472;50.060;21.960;2024-01-11T04:23:54;31.75;;;8.70;;
68484;SDS011;55472;50.060;21.960;2024-01-11T04:26:23;30.75;;;10.55;;
68484;SDS011;55472;50.060;21.960;2024-01-11T04:28:51;34.93;;;10.80;;
68484;SDS011;55472;50.060;21.960;2024-01-11T04:31:18;31.50;;;10.90;;
68484;SDS011;55472;50.060;21.960;2024-01-11T04:33:45;33.13;;;9.63;;
68484;SDS011;55472;50.060;21.960;2024-01-11T04:36:12;31.58;;;10.30;;
68484;SDS011;55472;50.060;21.960;2024-01-11T04:38:39;30.95;;;11.50;;
68484;SDS011;55472;50.060;21.960;2024-01-11T04:41:08;36.87;;;11.60;;
68484;SDS011;55472;50.060;21.960;2024-01-11T04:43:39;21.80;;;8.32;;
68484;SDS011;55472;50.060;21.960;2024-01-11T04:46:16;25.77;;;9.27;;
68484;SDS011;55472;50.060;21.960;2024-01-11T04:48:43;28.40;;;10.38;;
68484;SDS011;55472;50.060;21.960;2024-01-11T04:51:10;35.42;;;10.23;;
68484;SDS011;55472;50.060;21.960;2024-01-11T04:53:41;29.77;;;11.37;;
68484;SDS011;55472;50.060;21.960;2024-01-11T04:56:09;52.58;;;15.85;;
68484;SDS011;55472;50.060;21.960;2024-01-11T04:58:39;40.03;;;12.80;;
68484;SDS011;55472;50.060;21.960;2024-01-11T05:01:07;43.60;;;13.45;;
68484;SDS011;55472;50.060;21.960;2024-01-11T05:03:41;41.90;;;12.68;;
68484;SDS011;55472;50.060;21.960;2024-01-11T05:06:18;33.40;;;12.60;;
68484;SDS011;55472;50.060;21.960;2024-01-11T05:08:46;33.50;;;9.70;;
68484;SDS011;55472;50.060;21.960;2024-01-11T05:11:21;30.13;;;10.50;;
68484;SDS011;55472;50.060;21.960;2024-01-11T05:13:50;31.00;;;9.27;;
68484;SDS011;55472;50.060;21.960;2024-01-11T05:16:20;31.88;;;9.85;;
68484;SDS011;55472;50.060;21.960;2024-01-11T05:18:46;25.67;;;9.97;;
68484;SDS011;55472;50.060;21.960;2024-01-11T05:21:12;30.83;;;10.90;;
68484;SDS011;55472;50.060;21.960;2024-01-11T05:23:40;29.60;;;10.52;;
68484;SDS011;55472;50.060;21.960;2024-01-11T05:26:09;24.70;;;9.90;;
68484;SDS011;55472;50.060;21.960;2024-01-11T05:28:36;36.30;;;9.60;;
68484;SDS011;55472;50.060;21.960;2024-01-11T05:31:10;32.27;;;11.03;;
68484;SDS011;55472;50.060;21.960;2024-01-11T05:33:38;32.30;;;13.05;;
68484;SDS011;55472;50.060;21.960;2024-01-11T05:36:05;44.65;;;13.38;;
68484;SDS011;55472;50.060;21.960;2024-01-11T05:38:32;37.35;;;13.07;;
68484;SDS011;55472;50.060;21.960;2024-01-11T05:40:58;32.35;;;12.35;;
68484;SDS011;55472;50.060;21.960;2024-01-11T05:43:24;31.90;;;10.40;;
68484;SDS011;55472;50.060;21.960;2024-01-11T05:45:51;40.25;;;14.05;;
68484;SDS011;55472;50.060;21.960;2024-01-11T05:48:17;30.95;;;10.63;;
68484;SDS011;55472;50.060;21.960;2024-01-11T05:50:44;31.48;;;9.57;;
68484;SDS011;55472;50.060;21.960;2024-01-11T05:53:13;28.58;;;7.45;;
68484;SDS011;55472;50.060;21.960;2024-01-11T05:55:39;21.37;;;4.47;;
68484;SDS011;55472;50.060;21.960;2024-01-11T05:58:06;17.08;;;6.50;;
68484;SDS011;55472;50.060;21.960;2024-01-11T06:00:32;18.40;;;6.65;;
68484;SDS011;55472;50.060;21.960;2024-01-11T06:02:58;20.70;;;6.47;;
68484;SDS011;55472;50.060;21.960;2024-01-11T06:05:25;38.87;;;15.20;;
68484;SDS011;55472;50.060;21.960;2024-01-11T06:07:51;42.23;;;13.63;;
68484;SDS011;55472;50.060;21.960;2024-01-11T06:10:17;44.35;;;13.02;;
68484;SDS011;55472;50.060;21.960;2024-01-11T06:12:43;37.38;;;13.30;;
68484;SDS011;55472;50.060;21.960;2024-01-11T06:15:09;50.25;;;13.25;;
68484;SDS011;55472;50.060;21.960;2024-01-11T06:17:36;32.03;;;10.80;;
68484;SDS011;55472;50.060;21.960;2024-01-11T06:20:02;28.00;;;7.97;;
68484;SDS011;55472;50.060;21.960;2024-01-11T06:22:29;22.95;;;7.68;;
68484;SDS011;55472;50.060;21.960;2024-01-11T06:24:55;29.08;;;11.52;;
68484;SDS011;55472;50.060;21.960;2024-01-11T06:27:21;34.03;;;11.27;;
68484;SDS011;55472;50.060;21.960;2024-01-11T06:29:47;27.87;;;8.53;;
68484;SDS011;55472;50.060;21.960;2024-01-11T06:32:13;27.52;;;8.00;;
68484;SDS011;55472;50.060;21.960;2024-01-11T06:34:39;20.52;;;5.82;;
68484;SDS011;55472;50.060;21.960;2024-01-11T06:37:11;28.15;;;9.68;;
68484;SDS011;55472;50.060;21.960;2024-01-11T06:39:37;28.70;;;7.93;;
68484;SDS011;55472;50.060;21.960;2024-01-11T06:42:04;16.05;;;4.03;;
68484;SDS011;55472;50.060;21.960;2024-01-11T06:44:30;26.88;;;7.18;;
68484;SDS011;55472;50.060;21.960;2024-01-11T06:46:56;22.60;;;7.40;;
68484;SDS011;55472;50.060;21.960;2024-01-11T06:49:22;23.35;;;5.63;;
68484;SDS011;55472;50.060;21.960;2024-01-11T06:51:49;18.17;;;5.17;;
68484;SDS011;55472;50.060;21.960;2024-01-11T06:54:14;17.83;;;5.90;;
68484;SDS011;55472;50.060;21.960;2024-01-11T06:56:41;19.98;;;4.32;;
68484;SDS011;55472;50.060;21.960;2024-01-11T06:59:07;13.75;;;4.30;;
68484;SDS011;55472;50.060;21.960;2024-01-11T07:01:33;15.00;;;4.47;;
68484;SDS011;55472;50.060;21.960;2024-01-11T07:03:59;11.35;;;3.05;;
68484;SDS011;55472;50.060;21.960;2024-01-11T07:06:25;13.15;;;3.92;;
68484;SDS011;55472;50.060;21.960;2024-01-11T07:08:51;10.68;;;3.83;;
68484;SDS011;55472;50.060;21.960;2024-01-11T07:11:17;16.73;;;3.93;;
68484;SDS011;55472;50.060;21.960;2024-01-11T07:13:43;14.07;;;4.32;;
68484;SDS011;55472;50.060;21.960;2024-01-11T07:16:10;13.25;;;4.18;;
68484;SDS011;55472;50.060;21.960;2024-01-11T07:18:35;12.73;;;4.28;;
68484;SDS011;55472;50.060;21.960;2024-01-11T07:21:02;15.53;;;4.07;;
68484;SDS011;55472;50.060;21.960;2024-01-11T07:23:28;15.93;;;4.00;;
68484;SDS011;55472;50.060;21.960;2024-01-11T07:25:55;14.48;;;4.63;;
68484;SDS011;55472;50.060;21.960;2024-01-11T07:28:21;12.13;;;4.25;;
68484;SDS011;55472;50.060;21.960;2024-01-11T07:30:53;17.13;;;4.50;;
68484;SDS011;55472;50.060;21.960;2024-01-11T07:33:19;15.37;;;4.67;;
68484;SDS011;55472;50.060;21.960;2024-01-11T07:35:46;16.10;;;4.65;;
68484;SDS011;55472;50.060;21.960;2024-01-11T07:38:13;17.02;;;4.93;;
68484;SDS011;55472;50.060;21.960;2024-01-11T07:40:39;16.35;;;5.05;;
68484;SDS011;55472;50.060;21.960;2024-01-11T07:43:05;13.32;;;4.13;;
68484;SDS011;55472;50.060;21.960;2024-01-11T07:45:31;18.87;;;5.93;;
68484;SDS011;55472;50.060;21.960;2024-01-11T07:47:58;19.95;;;5.97;;
68484;SDS011;55472;50.060;21.960;2024-01-11T07:50:25;17.65;;;5.88;;
68484;SDS011;55472;50.060;21.960;2024-01-11T07:52:51;24.38;;;6.47;;
68484;SDS011;55472;50.060;21.960;2024-01-11T07:55:17;19.38;;;6.85;;
68484;SDS011;55472;50.060;21.960;2024-01-11T07:57:43;26.43;;;7.70;;
68484;SDS011;55472;50.060;21.960;2024-01-11T08:00:10;21.52;;;6.28;;
68484;SDS011;55472;50.060;21.960;2024-01-11T08:02:36;29.23;;;8.00;;
68484;SDS011;55472;50.060;21.960;2024-01-11T08:05:03;23.83;;;8.50;;
68484;SDS011;55472;50.060;21.960;2024-01-11T08:07:30;24.92;;;8.02;;
68484;SDS011;55472;50.060;21.960;2024-01-11T08:09:56;27.90;;;8.50;;
68484;SDS011;55472;50.060;21.960;2024-01-11T08:12:22;27.70;;;8.50;;
68484;SDS011;55472;50.060;21.960;2024-01-11T08:14:48;31.70;;;8.65;;
68484;SDS011;55472;50.060;21.960;2024-01-11T08:17:14;25.70;;;8.45;;
68484;SDS011;55472;50.060;21.960;2024-01-11T08:19:41;29.60;;;8.53;;
68484;SDS011;55472;50.060;21.960;2024-01-11T08:22:10;30.25;;;8.35;;
68484;SDS011;55472;50.060;21.960;2024-01-11T08:24:39;24.33;;;7.28;;
68484;SDS011;55472;50.060;21.960;2024-01-11T08:27:05;31.92;;;8.80;;
68484;SDS011;55472;50.060;21.960;2024-01-11T08:29:31;33.72;;;8.75;;
68484;SDS011;55472;50.060;21.960;2024-01-11T08:31:58;30.00;;;8.87;;
68484;SDS011;55472;50.060;21.960;2024-01-11T08:34:26;20.35;;;5.95;;
68484;SDS011;55472;50.060;21.960;2024-01-11T08:36:52;24.65;;;6.97;;
68484;SDS011;55472;50.060;21.960;2024-01-11T08:39:19;23.75;;;7.38;;
68484;SDS011;55472;50.060;21.960;2024-01-11T08:41:46;18.67;;;5.90;;
68484;SDS011;55472;50.060;21.960;2024-01-11T08:44:13;21.77;;;5.43;;
68484;SDS011;55472;50.060;21.960;2024-01-11T08:46:39;20.48;;;6.90;;
68484;SDS011;55472;50.060;21.960;2024-01-11T08:49:05;22.38;;;6.85;;
68484;SDS011;55472;50.060;21.960;2024-01-11T08:51:31;19.47;;;5.40;;
68484;SDS011;55472;50.060;21.960;2024-01-11T08:53:58;24.45;;;7.95;;
68484;SDS011;55472;50.060;21.960;2024-01-11T08:56:24;22.80;;;6.60;;
68484;SDS011;55472;50.060;21.960;2024-01-11T08:58:51;19.10;;;5.40;;
68484;SDS011;55472;50.060;21.960;2024-01-11T09:01:17;18.13;;;5.57;;
68484;SDS011;55472;50.060;21.960;2024-01-11T09:03:44;15.67;;;4.53;;
68484;SDS011;55472;50.060;21.960;2024-01-11T09:06:10;18.25;;;5.07;;
68484;SDS011;55472;50.060;21.960;2024-01-11T09:08:36;15.85;;;4.75;;
68484;SDS011;55472;50.060;21.960;2024-01-11T09:11:02;16.15;;;5.15;;
68484;SDS011;55472;50.060;21.960;2024-01-11T09:13:29;14.98;;;5.35;;
68484;SDS011;55472;50.060;21.960;2024-01-11T09:15:55;15.37;;;4.97;;
68484;SDS011;55472;50.060;21.960;2024-01-11T09:18:21;15.45;;;4.78;;
68484;SDS011;55472;50.060;21.960;2024-01-11T09:20:47;14.88;;;4.60;;
68484;SDS011;55472;50.060;21.960;2024-01-11T09:23:14;13.85;;;4.05;;
68484;SDS011;55472;50.060;21.960;2024-01-11T09:25:41;17.42;;;4.97;;
68484;SDS011;55472;50.060;21.960;2024-01-11T09:28:08;20.23;;;5.17;;
68484;SDS011;55472;50.060;21.960;2024-01-11T09:30:34;17.60;;;5.63;;
68484;SDS011;55472;50.060;21.960;2024-01-11T09:33:00;20.17;;;6.28;;
68484;SDS011;55472;50.060;21.960;2024-01-11T09:35:26;22.65;;;6.65;;
68484;SDS011;55472;50.060;21.960;2024-01-11T09:37:53;23.85;;;6.50;;
68484;SDS011;55472;50.060;21.960;2024-01-11T09:40:19;24.33;;;7.97;;
68484;SDS011;55472;50.060;21.960;2024-01-11T09:42:45;29.02;;;6.90;;
68484;SDS011;55472;50.060;21.960;2024-01-11T09:45:15;23.77;;;7.90;;
68484;SDS011;55472;50.060;21.960;2024-01-11T09:47:45;23.05;;;6.75;;
68484;SDS011;55472;50.060;21.960;2024-01-11T09:50:16;27.73;;;7.65;;
68484;SDS011;55472;50.060;21.960;2024-01-11T09:52:47;25.73;;;7.07;;
68484;SDS011;55472;50.060;21.960;2024-01-11T09:55:15;26.13;;;7.60;;
68484;SDS011;55472;50.060;21.960;2024-01-11T09:57:47;28.25;;;7.72;;
68484;SDS011;55472;50.060;21.960;2024-01-11T10:00:16;23.50;;;7.93;;
68484;SDS011;55472;50.060;21.960;2024-01-11T10:02:46;20.95;;;6.47;;
68484;SDS011;55472;50.060;21.960;2024-01-11T10:05:12;29.87;;;8.37;;
68484;SDS011;55472;50.060;21.960;2024-01-11T10:07:41;27.27;;;8.38;;
68484;SDS011;55472;50.060;21.960;2024-01-11T10:10:08;20.90;;;7.03;;
68484;SDS011;55472;50.060;21.960;2024-01-11T10:12:35;24.30;;;8.15;;
68484;SDS011;55472;50.060;21.960;2024-01-11T10:15:04;24.60;;;7.67;;
68484;SDS011;55472;50.060;21.960;2024-01-11T10:17:40;23.85;;;6.88;;
68484;SDS011;55472;50.060;21.960;2024-01-11T10:20:14;25.52;;;8.32;;
68484;SDS011;55472;50.060;21.960;2024-01-11T10:22:43;22.70;;;7.30;;
68484;SDS011;55472;50.060;21.960;2024-01-11T10:27:37;24.50;;;8.00;;
68484;SDS011;55472;50.060;21.960;2024-01-11T10:30:11;27.73;;;7.82;;
68484;SDS011;55472;50.060;21.960;2024-01-11T10:32:39;24.40;;;8.15;;
68484;SDS011;55472;50.060;21.960;2024-01-11T10:35:05;25.80;;;7.70;;
68484;SDS011;55472;50.060;21.960;2024-01-11T10:37:32;24.92;;;8.60;;
68484;SDS011;55472;50.060;21.960;2024-01-11T10:40:01;23.03;;;8.87;;
68484;SDS011;55472;50.060;21.960;2024-01-11T10:42:35;24.02;;;7.60;;
68484;SDS011;55472;50.060;21.960;2024-01-11T10:45:13;24.15;;;8.68;;
68484;SDS011;55472;50.060;21.960;2024-01-11T10:47:53;26.65;;;8.55;;
68484;SDS011;55472;50.060;21.960;2024-01-11T10:50:22;27.10;;;8.35;;
68484;SDS011;55472;50.060;21.960;2024-01-11T10:53:02;30.40;;;8.73;;
68484;SDS011;55472;50.060;21.960;2024-01-11T10:55:35;23.25;;;7.20;;
68484;SDS011;55472;50.060;21.960;2024-01-11T10:58:03;28.65;;;8.80;;
68484;SDS011;55472;50.060;21.960;2024-01-11T11:00:30;23.17;;;7.85;;
68484;SDS011;55472;50.060;21.960;2024-01-11T11:02:57;28.67;;;8.00;;
68484;SDS011;55472;50.060;21.960;2024-01-11T11:05:26;29.03;;;8.67;;
68484;SDS011;55472;50.060;21.960;2024-01-11T11:07:55;32.97;;;8.95;;
68484;SDS011;55472;50.060;21.960;2024-01-11T11:10:21;29.15;;;8.75;;
68484;SDS011;55472;50.060;21.960;2024-01-11T11:12:48;31.00;;;9.60;;
68484;SDS011;55472;50.060;21.960;2024-01-11T11:15:14;29.15;;;9.40;;
68484;SDS011;55472;50.060;21.960;2024-01-11T11:17:41;26.43;;;7.80;;
68484;SDS011;55472;50.060;21.960;2024-01-11T11:20:11;36.05;;;10.20;;
68484;SDS011;55472;50.060;21.960;2024-01-11T11:22:39;32.13;;;9.90;;
68484;SDS011;55472;50.060;21.960;2024-01-11T11:25:09;36.47;;;10.15;;
68484;SDS011;55472;50.060;21.960;2024-01-11T11:27:36;31.88;;;9.57;;
68484;SDS011;55472;50.060;21.960;2024-01-11T11:30:03;26.93;;;8.83;;
68484;SDS011;55472;50.060;21.960;2024-01-11T11:32:37;30.23;;;8.25;;
68484;SDS011;55472;50.060;21.960;2024-01-11T11:35:07;29.58;;;9.18;;
68484;SDS011;55472;50.060;21.960;2024-01-11T11:37:37;32.83;;;9.95;;
68484;SDS011;55472;50.060;21.960;2024-01-11T11:40:08;35.90;;;10.00;;
68484;SDS011;55472;50.060;21.960;2024-01-11T11:42:37;32.47;;;9.80;;
68484;SDS011;55472;50.060;21.960;2024-01-11T11:45:06;29.77;;;9.55;;
68484;SDS011;55472;50.060;21.960;2024-01-11T11:47:37;31.70;;;9.75;;
68484;SDS011;55472;50.060;21.960;2024-01-11T11:52:37;32.08;;;9.20;;
68484;SDS011;55472;50.060;21.960;2024-01-11T11:55:08;27.27;;;9.13;;
68484;SDS011;55472;50.060;21.960;2024-01-11T11:57:35;40.17;;;9.45;;
68484;SDS011;55472;50.060;21.960;2024-01-11T12:00:02;32.78;;;8.77;;
68484;SDS011;55472;50.060;21.960;2024-01-11T12:02:32;34.58;;;9.50;;
68484;SDS011;55472;50.060;21.960;2024-01-11T12:05:01;27.23;;;9.77;;
68484;SDS011;55472;50.060;21.960;2024-01-11T12:07:29;29.53;;;9.13;;
68484;SDS011;55472;50.060;21.960;2024-01-11T12:09:55;28.50;;;9.05;;
68484;SDS011;55472;50.060;21.960;2024-01-11T12:12:22;31.27;;;9.63;;
68484;SDS011;55472;50.060;21.960;2024-01-11T12:14:48;32.65;;;9.40;;
68484;SDS011;55472;50.060;21.960;2024-01-11T12:17:15;31.52;;;9.63;;
68484;SDS011;55472;50.060;21.960;2024-01-11T12:19:41;31.27;;;9.53;;
68484;SDS011;55472;50.060;21.960;2024-01-11T12:22:08;22.48;;;7.97;;
68484;SDS011;55472;50.060;21.960;2024-01-11T12:24:34;31.95;;;9.30;;
68484;SDS011;55472;50.060;21.960;2024-01-11T12:27:01;33.00;;;9.02;;
68484;SDS011;55472;50.060;21.960;2024-01-11T12:29:30;34.90;;;10.13;;
68484;SDS011;55472;50.060;21.960;2024-01-11T12:31:57;30.73;;;10.57;;
68484;SDS011;55472;50.060;21.960;2024-01-11T12:34:26;24.70;;;7.97;;
68484;SDS011;55472;50.060;21.960;2024-01-11T12:36:53;28.45;;;8.52;;
68484;SDS011;55472;50.060;21.960;2024-01-11T12:39:21;33.72;;;8.18;;
68484;SDS011;55472;50.060;21.960;2024-01-11T12:41:50;27.35;;;8.98;;
68484;SDS011;55472;50.060;21.960;2024-01-11T12:44:18;28.97;;;9.30;;
68484;SDS011;55472;50.060;21.960;2024-01-11T12:46:47;32.08;;;9.40;;
68484;SDS011;55472;50.060;21.960;2024-01-11T12:49:17;35.35;;;10.73;;
68484;SDS011;55472;50.060;21.960;2024-01-11T12:51:43;36.42;;;10.52;;
68484;SDS011;55472;50.060;21.960;2024-01-11T12:54:11;29.17;;;9.38;;
68484;SDS011;55472;50.060;21.960;2024-01-11T12:56:45;36.67;;;9.57;;
68484;SDS011;55472;50.060;21.960;2024-01-11T12:59:11;30.60;;;9.93;;
68484;SDS011;55472;50.060;21.960;2024-01-11T13:01:38;30.10;;;10.82;;
68484;SDS011;55472;50.060;21.960;2024-01-11T13:04:05;37.65;;;10.68;;
68484;SDS011;55472;50.060;21.960;2024-01-11T13:06:34;37.60;;;11.00;;
68484;SDS011;55472;50.060;21.960;2024-01-11T13:09:01;34.30;;;9.63;;
68484;SDS011;55472;50.060;21.960;2024-01-11T13:11:28;31.00;;;9.45;;
68484;SDS011;55472;50.060;21.960;2024-01-11T13:13:55;28.58;;;9.45;;
68484;SDS011;55472;50.060;21.960;2024-01-11T13:16:24;35.17;;;10.65;;
68484;SDS011;55472;50.060;21.960;2024-01-11T13:18:50;36.10;;;10.75;;
68484;SDS011;55472;50.060;21.960;2024-01-11T13:21:16;35.93;;;11.63;;
68484;SDS011;55472;50.060;21.960;2024-01-11T13:23:43;43.88;;;12.05;;
68484;SDS011;55472;50.060;21.960;2024-01-11T13:26:09;28.92;;;9.43;;
68484;SDS011;55472;50.060;21.960;2024-01-11T13:28:35;35.42;;;11.50;;
68484;SDS011;55472;50.060;21.960;2024-01-11T13:31:01;33.10;;;10.60;;
68484;SDS011;55472;50.060;21.960;2024-01-11T13:33:27;41.10;;;11.07;;
68484;SDS011;55472;50.060;21.960;2024-01-11T13:35:54;38.83;;;12.98;;
68484;SDS011;55472;50.060;21.960;2024-01-11T13:38:20;42.00;;;12.63;;
68484;SDS011;55472;50.060;21.960;2024-01-11T13:40:46;33.83;;;10.27;;
68484;SDS011;55472;50.060;21.960;2024-01-11T13:43:13;37.17;;;11.10;;
68484;SDS011;55472;50.060;21.960;2024-01-11T13:45:39;35.67;;;10.43;;
68484;SDS011;55472;50.060;21.960;2024-01-11T13:48:05;37.50;;;10.85;;
68484;SDS011;55472;50.060;21.960;2024-01-11T13:50:32;40.75;;;13.10;;
68484;SDS011;55472;50.060;21.960;2024-01-11T13:52:58;50.95;;;12.52;;
68484;SDS011;55472;50.060;21.960;2024-01-11T13:55:25;46.88;;;13.82;;
68484;SDS011;55472;50.060;21.960;2024-01-11T13:57:51;39.60;;;12.43;;
68484;SDS011;55472;50.060;21.960;2024-01-11T14:00:19;39.53;;;11.95;;
68484;SDS011;55472;50.060;21.960;2024-01-11T14:02:46;36.00;;;12.88;;
68484;SDS011;55472;50.060;21.960;2024-01-11T14:05:13;47.67;;;14.10;;
68484;SDS011;55472;50.060;21.960;2024-01-11T14:07:43;39.65;;;13.75;;
68484;SDS011;55472;50.060;21.960;2024-01-11T14:10:11;36.57;;;13.30;;
68484;SDS011;55472;50.060;21.960;2024-01-11T14:12:39;39.08;;;13.45;;
68484;SDS011;55472;50.060;21.960;2024-01-11T14:15:06;41.92;;;13.55;;
68484;SDS011;55472;50.060;21.960;2024-01-11T14:17:37;38.92;;;12.45;;
68484;SDS011;55472;50.060;21.960;2024-01-11T14:20:05;38.75;;;14.45;;
68484;SDS011;55472;50.060;21.960;2024-01-11T14:22:37;41.43;;;12.37;;